Mary Alice — WCX9570 — position and weather

sailwx.info

Track history (hours):
 
Tides and Currents Weather Stations Pressure Air Temp Water Temp Dewpoint Dewpoint Depression Visibility Wind Speed Wind Dir Waves Ship Positions

Mary Alice

Owner: Donjon Marine Co., Inc., HILLSIDE, NJ. More information available from US FCC via Universal Licensing System and Coast Guard Vessel Documentation Center.

Last reported at 2014-Dec-21 04:34 UTC. Time now 2014-Dec-21 04:48 UTC.
Position N 41°14' W 071°60'.

Length 21 m; draft 5 m.

Type: Towing. MMSI: 366744020.

Date/timePositionNaut miles runAvg speedWind from/ knotsBaromVisibWave heightAir tempDewpointWater temp
2014-Dec-21 04:34N 41°14' W 071°60'7 7.4
2014-Dec-21 03:33N 41°16' W 071°50'8 8.0
2014-Dec-21 02:34N 41°17' W 071°40'8 8.4
2014-Dec-21 01:34N 41°19' W 071°29'9 8.2
2014-Dec-21 00:29N 41°27' W 071°23'7 6.9
2014-Dec-20 23:29N 41°33' W 071°21'4 4.1
2014-Dec-20 22:33N 41°37' W 071°24'0 0.4
2014-Dec-20 21:34N 41°37' W 071°24'0 0.0
2014-Dec-20 20:33N 41°37' W 071°24'0 0.0
2014-Dec-20 19:30N 41°37' W 071°24'0 0.0
2014-Dec-20 18:33N 41°37' W 071°24'0 0.0
2014-Dec-20 17:34N 41°37' W 071°24'0 0.0
2014-Dec-20 16:34N 41°37' W 071°24'0 0.0
2014-Dec-20 15:33N 41°37' W 071°24'0 0.0
2014-Dec-20 14:33N 41°37' W 071°24'0 0.0
2014-Dec-20 13:33N 41°37' W 071°24'0 0.1
2014-Dec-20 12:34N 41°37' W 071°24'0 0.0
2014-Dec-20 11:33N 41°37' W 071°24'0 0.0
2014-Dec-20 10:34N 41°37' W 071°24'0 0.0
2014-Dec-20 09:33N 41°37' W 071°24'0 0.0
2014-Dec-20 08:33N 41°37' W 071°24'0 0.0
2014-Dec-20 07:33N 41°37' W 071°24'0 0.0
2014-Dec-20 06:33N 41°37' W 071°24'0 0.0
2014-Dec-20 05:33N 41°37' W 071°24'0 0.0
2014-Dec-20 04:34N 41°37' W 071°24'0 0.0
2014-Dec-20 03:33N 41°37' W 071°24'0 0.0
2014-Dec-20 02:33N 41°37' W 071°24'2 1.7
2014-Dec-20 01:34N 41°35' W 071°23'6 5.8
2014-Dec-20 00:34N 41°29' W 071°25'7 6.5
2014-Dec-19 23:25N 41°22' W 071°27'5 5.9
2014-Dec-19 22:34N 41°19' W 071°32'6 6.3
2014-Dec-19 21:34N 41°17' W 071°40'6 6.3
2014-Dec-19 20:34N 41°16' W 071°48'6 6.4
2014-Dec-19 19:34N 41°15' W 071°57'8 7.8
2014-Dec-19 18:34N 41°14' W 072°07'9 9.3
2014-Dec-19 17:34N 41°12' W 072°19'10 9.7
2014-Dec-19 16:33N 41°10' W 072°32'9 9.2
2014-Dec-19 15:34N 41°08' W 072°44'8 8.4
2014-Dec-19 14:34N 41°05' W 072°54'9 8.3
2014-Dec-19 13:28N 41°03' W 073°06'8 8.6
2014-Dec-19 12:31N 41°01' W 073°16'8 8.4
2014-Dec-19 11:33N 40°59' W 073°27'9 8.6
2014-Dec-19 10:33N 40°55' W 073°37'11 7.9
2014-Dec-19 09:07N 40°48' W 073°49'6 9.4
2014-Dec-19 08:32N 40°47' W 073°56'9 9.3
2014-Dec-19 07:33N 40°40' W 074°03'4 3.9
2014-Dec-19 06:33N 40°41' W 074°08'1 1.2
2014-Dec-19 05:28N 40°42' W 074°09'3 1.0
2014-Dec-19 02:07N 40°39' W 074°07'0 0.3
2014-Dec-19 01:33N 40°39' W 074°06'7 6.8
2014-Dec-19 00:33N 40°42' W 073°59'3 3.0
2014-Dec-18 23:34N 40°45' W 073°57'5 4.8
2014-Dec-18 22:33N 40°41' W 074°01'6 5.7
2014-Dec-18 21:33N 40°39' W 074°07'3 2.8
2014-Dec-18 20:21N 40°42' W 074°09'1 1.9
2014-Dec-18 19:33N 40°41' W 074°08'3 2.6
2014-Dec-18 18:34N 40°41' W 074°04'0 0.2
2014-Dec-18 17:33N 40°40' W 074°04'4 3.8
2014-Dec-18 16:33N 40°39' W 074°09'10 5.0
2014-Dec-18 14:27N 40°30' W 074°16'7 3.4
2014-Dec-18 12:31N 40°30' W 074°07'4 0.9
2014-Dec-18 08:24N 40°28' W 074°02'6 6.7
2014-Dec-18 07:32N 40°30' W 074°10'2 0.6
2014-Dec-18 04:19N 40°30' W 074°12'3 3.6
2014-Dec-18 03:29N 40°30' W 074°08'2 2.5
2014-Dec-18 02:32N 40°29' W 074°05'11 5.5
2014-Dec-18 00:31N 40°25' W 073°52'1 1.3
2014-Dec-17 23:33N 40°24' W 073°53'8 6.9
2014-Dec-17 22:24N 40°29' W 074°02'7 6.6
2014-Dec-17 21:18N 40°30' W 074°12'3 3.2
2014-Dec-17 20:23N 40°30' W 074°15'0 0.4
2014-Dec-17 19:28N 40°30' W 074°16'2 1.9
2014-Dec-17 18:27N 40°30' W 074°13'17 5.9
2014-Dec-17 15:30N 40°23' W 073°52'8 8.3
2014-Dec-17 14:32N 40°29' W 073°59'7 6.6
2014-Dec-17 13:33N 40°30' W 074°08'4 1.7
2014-Dec-17 11:27N 40°30' W 074°13'8 8.0
2014-Dec-17 10:29N 40°29' W 074°03'3 0.8
2014-Dec-17 07:10N 40°29' W 073°59'4 6.1
2014-Dec-17 06:32N 40°29' W 074°04'8 5.9
2014-Dec-17 05:14N 40°29' W 074°15'2 1.3
2014-Dec-17 03:27N 40°31' W 074°12'3 3.9
2014-Dec-17 02:33N 40°30' W 074°07'15 7.5
2014-Dec-17 00:33N 40°24' W 073°49'6 5.7
2014-Dec-16 23:34N 40°27' W 073°56'7 7.1
2014-Dec-16 22:33N 40°29' W 074°05'7 5.7
2014-Dec-16 21:18N 40°29' W 074°14'1 1.4
2014-Dec-16 20:21N 40°30' W 074°16'0 0.1
2014-Dec-16 19:32N 40°30' W 074°16'0 0.0
2014-Dec-16 18:33N 40°30' W 074°16'0 0.0
2014-Dec-16 17:33N 40°30' W 074°16'4 3.8
2014-Dec-16 16:33N 40°30' W 074°11'8 8.1
2014-Dec-16 15:31N 40°29' W 073°60'8 8.3
2014-Dec-16 14:32N 40°24' W 073°51'3 2.8
2014-Dec-16 13:34N 40°25' W 073°54'7 6.9
2014-Dec-16 12:33N 40°29' W 074°02'6 5.8
2014-Dec-16 11:33N 40°30' W 074°10'4 2.1
2014-Dec-16 09:26N 40°30' W 074°16'0 0.1
2014-Dec-16 08:21N 40°30' W 074°16'0 0.0
2014-Dec-16 07:32N 40°30' W 074°16'0 0.0
2014-Dec-16 06:34N 40°30' W 074°16'0 0.0
2014-Dec-16 05:20N 40°30' W 074°16'2 2.3
2014-Dec-16 04:33N 40°30' W 074°13'8 8.3
2014-Dec-16 03:31N 40°28' W 074°02'8 7.5
2014-Dec-16 02:26N 40°25' W 073°52'1 1.4
2014-Dec-16 01:24N 40°25' W 073°54'8 6.5
2014-Dec-16 00:07N 40°29' W 074°04'6 7.4
2014-Dec-15 23:21N 40°30' W 074°11'3 3.6
2014-Dec-15 22:27N 40°30' W 074°15'1 1.2
2014-Dec-15 21:31N 40°29' W 074°14'8 7.8
2014-Dec-15 20:31N 40°29' W 074°04'11 8.1
2014-Dec-15 19:13N 40°24' W 073°52'1 1.2
2014-Dec-15 18:22N 40°24' W 073°53'7 7.3
2014-Dec-15 17:28N 40°29' W 073°59'6 6.0
2014-Dec-15 16:29N 40°29' W 074°07'6 5.6
2014-Dec-15 15:28N 40°29' W 074°14'0 0.2
2014-Dec-15 14:30N 40°29' W 074°14'8 8.0
2014-Dec-15 13:33N 40°29' W 074°05'13 6.3
2014-Dec-15 11:33N 40°23' W 073°50'7 6.6
2014-Dec-15 10:30N 40°28' W 073°57'7 7.1
2014-Dec-15 09:32N 40°29' W 074°06'7 5.9
2014-Dec-15 08:23N 40°29' W 074°15'1 1.1
2014-Dec-15 07:33N 40°30' W 074°15'0 0.4
2014-Dec-15 06:29N 40°30' W 074°16'0 0.4
2014-Dec-15 05:29N 40°30' W 074°15'0 0.2
2014-Dec-15 03:33N 40°30' W 074°16'0 0.4
2014-Dec-15 02:26N 40°30' W 074°16'0 0.1
2014-Dec-15 01:27N 40°30' W 074°16'0 0.0
2014-Dec-14 21:09N 40°30' W 074°16'1 1.6
2014-Dec-14 20:26N 40°29' W 074°14'7 7.0
2014-Dec-14 19:30N 40°29' W 074°06'7 6.7
2014-Dec-14 18:30N 40°28' W 073°57'7 7.7
2014-Dec-14 17:33N 40°23' W 073°50'6 5.8
2014-Dec-14 16:32N 40°27' W 073°56'6 6.0
2014-Dec-14 15:33N 40°29' W 074°03'6 5.8
2014-Dec-14 14:33N 40°30' W 074°10'4 3.8
2014-Dec-14 13:33N 40°30' W 074°15'3 3.4
2014-Dec-14 12:33N 40°30' W 074°11'8 7.6
2014-Dec-14 11:27N 40°29' W 074°00'8 7.0
2014-Dec-14 10:17N 40°23' W 073°53'0 0.2
2014-Dec-14 09:31N 40°23' W 073°52'7 7.7
2014-Dec-14 08:33N 40°29' W 073°59'7 7.2
2014-Dec-14 07:33N 40°30' W 074°08'5 5.1
2014-Dec-14 06:30N 40°30' W 074°15'0 0.2
2014-Dec-14 05:31N 40°30' W 074°15'3 2.6
2014-Dec-14 04:32N 40°30' W 074°12'9 8.3
2014-Dec-14 03:26N 40°29' W 074°00'10 7.4
2014-Dec-14 02:05N 40°23' W 073°50'4 6.9
2014-Dec-14 01:33N 40°25' W 073°54'7 6.8
2014-Dec-14 00:32N 40°29' W 074°02'5 4.9
2014-Dec-13 23:25N 40°30' W 074°09'5 5.1
2014-Dec-13 22:30N 40°29' W 074°15'1 0.7
2014-Dec-13 21:28N 40°30' W 074°16'4 2.3
2014-Dec-13 19:33N 40°30' W 074°10'15 4.7
2014-Dec-13 16:23N 40°23' W 073°53'8 7.2
2014-Dec-13 15:20N 40°29' W 073°59'4 5.7
2014-Dec-13 14:33N 40°29' W 074°05'8 6.4
2014-Dec-13 13:22N 40°30' W 074°15'3 2.0
2014-Dec-13 12:03N 40°30' W 074°12'5 3.1
2014-Dec-13 10:19N 40°29' W 074°05'1 1.0
2014-Dec-13 09:29N 40°29' W 074°06'2 2.1
2014-Dec-13 08:22N 40°29' W 074°03'9 5.0
2014-Dec-13 06:30N 40°23' W 073°53'2 1.4
2014-Dec-13 05:21N 40°25' W 073°54'6 7.2
2014-Dec-13 04:33N 40°29' W 073°59'6 5.6
2014-Dec-13 03:33N 40°29' W 074°07'6 5.4
2014-Dec-13 02:22N 40°30' W 074°15'5 2.6
2014-Dec-13 00:29N 40°30' W 074°09'4 4.3
2014-Dec-12 23:31N 40°29' W 074°03'10 4.1
2014-Dec-12 21:05N 40°23' W 073°52'6 7.5
2014-Dec-12 20:14N 40°28' W 073°58'5 7.3
2014-Dec-12 19:33N 40°29' W 074°04'8 5.9
2014-Dec-12 18:09N 40°29' W 074°15'19 4.7
2014-Dec-12 14:10N 40°24' W 073°51'2 2.5
2014-Dec-12 13:28N 40°23' W 073°53'7 7.5
2014-Dec-12 12:32N 40°29' W 073°59'1 0.8
2014-Dec-12 11:09N 40°29' W 074°00'2 0.5
2014-Dec-12 07:32N 40°29' W 074°02'8 7.0
2014-Dec-12 06:25N 40°30' W 074°12'3 2.0
2014-Dec-12 05:08N 40°30' W 074°15'0 0.1
2014-Dec-12 04:33N 40°30' W 074°15'0 0.4
2014-Dec-12 03:34N 40°30' W 074°16'0 0.5
2014-Dec-12 02:32N 40°29' W 074°15'8 7.9
2014-Dec-12 01:33N 40°29' W 074°05'12 7.8
2014-Dec-12 00:04N 40°24' W 073°51'1 2.4
2014-Dec-11 23:33N 40°23' W 073°51'9 6.5
2014-Dec-11 22:13N 40°29' W 073°59'5 6.9
2014-Dec-11 21:32N 40°29' W 074°06'7 6.0
2014-Dec-11 20:27N 40°29' W 074°14'1 1.1
2014-Dec-11 19:19N 40°30' W 074°16'0 0.0
2014-Dec-11 16:14N 40°30' W 074°16'6 3.5
2014-Dec-11 14:29N 40°30' W 074°08'6 6.0
2014-Dec-11 13:33N 40°29' W 074°00'8 6.3
2014-Dec-11 12:18N 40°25' W 073°52'2 2.0
2014-Dec-11 11:31N 40°23' W 073°52'4 3.3
2014-Dec-11 10:25N 40°25' W 073°56'3 1.0
2014-Dec-11 07:22N 40°23' W 073°53'7 6.0
2014-Dec-11 06:10N 40°29' W 073°59'4 5.8
2014-Dec-11 05:34N 40°29' W 074°04'  
Track history (hours):
 
Tides and Currents Weather Stations Pressure Air Temp Water Temp Dewpoint Dewpoint Depression Visibility Wind Speed Wind Dir Waves Ship Positions

Mary Alice

Owner: Donjon Marine Co., Inc., HILLSIDE, NJ. More information available from US FCC via Universal Licensing System and Coast Guard Vessel Documentation Center.

Last reported at 2014-Dec-21 04:34 UTC. Time now 2014-Dec-21 04:48 UTC.
Position N 41°14' W 071°60'.

Length 21 m; draft 5 m.

Type: Towing. MMSI: 366744020.

Date/timePositionNaut miles runAvg speedWind from/ knotsBaromVisibWave heightAir tempDewpointWater temp
2014-Dec-21 04:34N 41°14' W 071°60'7 7.4
2014-Dec-21 03:33N 41°16' W 071°50'8 8.0
2014-Dec-21 02:34N 41°17' W 071°40'8 8.4
2014-Dec-21 01:34N 41°19' W 071°29'9 8.2
2014-Dec-21 00:29N 41°27' W 071°23'7 6.9
2014-Dec-20 23:29N 41°33' W 071°21'4 4.1
2014-Dec-20 22:33N 41°37' W 071°24'0 0.4
2014-Dec-20 21:34N 41°37' W 071°24'0 0.0
2014-Dec-20 20:33N 41°37' W 071°24'0 0.0
2014-Dec-20 19:30N 41°37' W 071°24'0 0.0
2014-Dec-20 18:33N 41°37' W 071°24'0 0.0
2014-Dec-20 17:34N 41°37' W 071°24'0 0.0
2014-Dec-20 16:34N 41°37' W 071°24'0 0.0
2014-Dec-20 15:33N 41°37' W 071°24'0 0.0
2014-Dec-20 14:33N 41°37' W 071°24'0 0.0
2014-Dec-20 13:33N 41°37' W 071°24'0 0.1
2014-Dec-20 12:34N 41°37' W 071°24'0 0.0
2014-Dec-20 11:33N 41°37' W 071°24'0 0.0
2014-Dec-20 10:34N 41°37' W 071°24'0 0.0
2014-Dec-20 09:33N 41°37' W 071°24'0 0.0
2014-Dec-20 08:33N 41°37' W 071°24'0 0.0
2014-Dec-20 07:33N 41°37' W 071°24'0 0.0
2014-Dec-20 06:33N 41°37' W 071°24'0 0.0
2014-Dec-20 05:33N 41°37' W 071°24'0 0.0
2014-Dec-20 04:34N 41°37' W 071°24'0 0.0
2014-Dec-20 03:33N 41°37' W 071°24'0 0.0
2014-Dec-20 02:33N 41°37' W 071°24'2 1.7
2014-Dec-20 01:34N 41°35' W 071°23'6 5.8
2014-Dec-20 00:34N 41°29' W 071°25'7 6.5
2014-Dec-19 23:25N 41°22' W 071°27'5 5.9
2014-Dec-19 22:34N 41°19' W 071°32'6 6.3
2014-Dec-19 21:34N 41°17' W 071°40'6 6.3
2014-Dec-19 20:34N 41°16' W 071°48'6 6.4
2014-Dec-19 19:34N 41°15' W 071°57'8 7.8
2014-Dec-19 18:34N 41°14' W 072°07'9 9.3
2014-Dec-19 17:34N 41°12' W 072°19'10 9.7
2014-Dec-19 16:33N 41°10' W 072°32'9 9.2
2014-Dec-19 15:34N 41°08' W 072°44'8 8.4
2014-Dec-19 14:34N 41°05' W 072°54'9 8.3
2014-Dec-19 13:28N 41°03' W 073°06'8 8.6
2014-Dec-19 12:31N 41°01' W 073°16'8 8.4
2014-Dec-19 11:33N 40°59' W 073°27'9 8.6
2014-Dec-19 10:33N 40°55' W 073°37'11 7.9
2014-Dec-19 09:07N 40°48' W 073°49'6 9.4
2014-Dec-19 08:32N 40°47' W 073°56'9 9.3
2014-Dec-19 07:33N 40°40' W 074°03'4 3.9
2014-Dec-19 06:33N 40°41' W 074°08'1 1.2
2014-Dec-19 05:28N 40°42' W 074°09'3 1.0
2014-Dec-19 02:07N 40°39' W 074°07'0 0.3
2014-Dec-19 01:33N 40°39' W 074°06'7 6.8
2014-Dec-19 00:33N 40°42' W 073°59'3 3.0
2014-Dec-18 23:34N 40°45' W 073°57'5 4.8
2014-Dec-18 22:33N 40°41' W 074°01'6 5.7
2014-Dec-18 21:33N 40°39' W 074°07'3 2.8
2014-Dec-18 20:21N 40°42' W 074°09'1 1.9
2014-Dec-18 19:33N 40°41' W 074°08'3 2.6
2014-Dec-18 18:34N 40°41' W 074°04'0 0.2
2014-Dec-18 17:33N 40°40' W 074°04'4 3.8
2014-Dec-18 16:33N 40°39' W 074°09'10 5.0
2014-Dec-18 14:27N 40°30' W 074°16'7 3.4
2014-Dec-18 12:31N 40°30' W 074°07'4 0.9
2014-Dec-18 08:24N 40°28' W 074°02'6 6.7
2014-Dec-18 07:32N 40°30' W 074°10'2 0.6
2014-Dec-18 04:19N 40°30' W 074°12'3 3.6
2014-Dec-18 03:29N 40°30' W 074°08'2 2.5
2014-Dec-18 02:32N 40°29' W 074°05'11 5.5
2014-Dec-18 00:31N 40°25' W 073°52'1 1.3
2014-Dec-17 23:33N 40°24' W 073°53'8 6.9
2014-Dec-17 22:24N 40°29' W 074°02'7 6.6
2014-Dec-17 21:18N 40°30' W 074°12'3 3.2
2014-Dec-17 20:23N 40°30' W 074°15'0 0.4
2014-Dec-17 19:28N 40°30' W 074°16'2 1.9
2014-Dec-17 18:27N 40°30' W 074°13'17 5.9
2014-Dec-17 15:30N 40°23' W 073°52'8 8.3
2014-Dec-17 14:32N 40°29' W 073°59'7 6.6
2014-Dec-17 13:33N 40°30' W 074°08'4 1.7
2014-Dec-17 11:27N 40°30' W 074°13'8 8.0
2014-Dec-17 10:29N 40°29' W 074°03'3 0.8
2014-Dec-17 07:10N 40°29' W 073°59'4 6.1
2014-Dec-17 06:32N 40°29' W 074°04'8 5.9
2014-Dec-17 05:14N 40°29' W 074°15'2 1.3
2014-Dec-17 03:27N 40°31' W 074°12'3 3.9
2014-Dec-17 02:33N 40°30' W 074°07'15 7.5
2014-Dec-17 00:33N 40°24' W 073°49'6 5.7
2014-Dec-16 23:34N 40°27' W 073°56'7 7.1
2014-Dec-16 22:33N 40°29' W 074°05'7 5.7
2014-Dec-16 21:18N 40°29' W 074°14'1 1.4
2014-Dec-16 20:21N 40°30' W 074°16'0 0.1
2014-Dec-16 19:32N 40°30' W 074°16'0 0.0
2014-Dec-16 18:33N 40°30' W 074°16'0 0.0
2014-Dec-16 17:33N 40°30' W 074°16'4 3.8
2014-Dec-16 16:33N 40°30' W 074°11'8 8.1
2014-Dec-16 15:31N 40°29' W 073°60'8 8.3
2014-Dec-16 14:32N 40°24' W 073°51'3 2.8
2014-Dec-16 13:34N 40°25' W 073°54'7 6.9
2014-Dec-16 12:33N 40°29' W 074°02'6 5.8
2014-Dec-16 11:33N 40°30' W 074°10'4 2.1
2014-Dec-16 09:26N 40°30' W 074°16'0 0.1
2014-Dec-16 08:21N 40°30' W 074°16'0 0.0
2014-Dec-16 07:32N 40°30' W 074°16'0 0.0
2014-Dec-16 06:34N 40°30' W 074°16'0 0.0
2014-Dec-16 05:20N 40°30' W 074°16'2 2.3
2014-Dec-16 04:33N 40°30' W 074°13'8 8.3
2014-Dec-16 03:31N 40°28' W 074°02'8 7.5
2014-Dec-16 02:26N 40°25' W 073°52'1 1.4
2014-Dec-16 01:24N 40°25' W 073°54'8 6.5
2014-Dec-16 00:07N 40°29' W 074°04'6 7.4
2014-Dec-15 23:21N 40°30' W 074°11'3 3.6
2014-Dec-15 22:27N 40°30' W 074°15'1 1.2
2014-Dec-15 21:31N 40°29' W 074°14'8 7.8
2014-Dec-15 20:31N 40°29' W 074°04'11 8.1
2014-Dec-15 19:13N 40°24' W 073°52'1 1.2
2014-Dec-15 18:22N 40°24' W 073°53'7 7.3
2014-Dec-15 17:28N 40°29' W 073°59'6 6.0
2014-Dec-15 16:29N 40°29' W 074°07'6 5.6
2014-Dec-15 15:28N 40°29' W 074°14'0 0.2
2014-Dec-15 14:30N 40°29' W 074°14'8 8.0
2014-Dec-15 13:33N 40°29' W 074°05'13 6.3
2014-Dec-15 11:33N 40°23' W 073°50'7 6.6
2014-Dec-15 10:30N 40°28' W 073°57'7 7.1
2014-Dec-15 09:32N 40°29' W 074°06'7 5.9
2014-Dec-15 08:23N 40°29' W 074°15'1 1.1
2014-Dec-15 07:33N 40°30' W 074°15'0 0.4
2014-Dec-15 06:29N 40°30' W 074°16'0 0.4
2014-Dec-15 05:29N 40°30' W 074°15'0 0.2
2014-Dec-15 03:33N 40°30' W 074°16'0 0.4
2014-Dec-15 02:26N 40°30' W 074°16'0 0.1
2014-Dec-15 01:27N 40°30' W 074°16'0 0.0
2014-Dec-14 21:09N 40°30' W 074°16'1 1.6
2014-Dec-14 20:26N 40°29' W 074°14'7 7.0
2014-Dec-14 19:30N 40°29' W 074°06'7 6.7
2014-Dec-14 18:30N 40°28' W 073°57'7 7.7
2014-Dec-14 17:33N 40°23' W 073°50'6 5.8
2014-Dec-14 16:32N 40°27' W 073°56'6 6.0
2014-Dec-14 15:33N 40°29' W 074°03'6 5.8
2014-Dec-14 14:33N 40°30' W 074°10'4 3.8
2014-Dec-14 13:33N 40°30' W 074°15'3 3.4
2014-Dec-14 12:33N 40°30' W 074°11'8 7.6
2014-Dec-14 11:27N 40°29' W 074°00'8 7.0
2014-Dec-14 10:17N 40°23' W 073°53'0 0.2
2014-Dec-14 09:31N 40°23' W 073°52'7 7.7
2014-Dec-14 08:33N 40°29' W 073°59'7 7.2
2014-Dec-14 07:33N 40°30' W 074°08'5 5.1
2014-Dec-14 06:30N 40°30' W 074°15'0 0.2
2014-Dec-14 05:31N 40°30' W 074°15'3 2.6
2014-Dec-14 04:32N 40°30' W 074°12'9 8.3
2014-Dec-14 03:26N 40°29' W 074°00'10 7.4
2014-Dec-14 02:05N 40°23' W 073°50'4 6.9
2014-Dec-14 01:33N 40°25' W 073°54'7 6.8
2014-Dec-14 00:32N 40°29' W 074°02'5 4.9
2014-Dec-13 23:25N 40°30' W 074°09'5 5.1
2014-Dec-13 22:30N 40°29' W 074°15'1 0.7
2014-Dec-13 21:28N 40°30' W 074°16'4 2.3
2014-Dec-13 19:33N 40°30' W 074°10'15 4.7
2014-Dec-13 16:23N 40°23' W 073°53'8 7.2
2014-Dec-13 15:20N 40°29' W 073°59'4 5.7
2014-Dec-13 14:33N 40°29' W 074°05'8 6.4
2014-Dec-13 13:22N 40°30' W 074°15'3 2.0
2014-Dec-13 12:03N 40°30' W 074°12'5 3.1
2014-Dec-13 10:19N 40°29' W 074°05'1 1.0
2014-Dec-13 09:29N 40°29' W 074°06'2 2.1
2014-Dec-13 08:22N 40°29' W 074°03'9 5.0
2014-Dec-13 06:30N 40°23' W 073°53'2 1.4
2014-Dec-13 05:21N 40°25' W 073°54'6 7.2
2014-Dec-13 04:33N 40°29' W 073°59'6 5.6
2014-Dec-13 03:33N 40°29' W 074°07'6 5.4
2014-Dec-13 02:22N 40°30' W 074°15'5 2.6
2014-Dec-13 00:29N 40°30' W 074°09'4 4.3
2014-Dec-12 23:31N 40°29' W 074°03'10 4.1
2014-Dec-12 21:05N 40°23' W 073°52'6 7.5
2014-Dec-12 20:14N 40°28' W 073°58'5 7.3
2014-Dec-12 19:33N 40°29' W 074°04'8 5.9
2014-Dec-12 18:09N 40°29' W 074°15'19 4.7
2014-Dec-12 14:10N 40°24' W 073°51'2 2.5
2014-Dec-12 13:28N 40°23' W 073°53'7 7.5
2014-Dec-12 12:32N 40°29' W 073°59'1 0.8
2014-Dec-12 11:09N 40°29' W 074°00'2 0.5
2014-Dec-12 07:32N 40°29' W 074°02'8 7.0
2014-Dec-12 06:25N 40°30' W 074°12'3 2.0
2014-Dec-12 05:08N 40°30' W 074°15'0 0.1
2014-Dec-12 04:33N 40°30' W 074°15'0 0.4
2014-Dec-12 03:34N 40°30' W 074°16'0 0.5
2014-Dec-12 02:32N 40°29' W 074°15'8 7.9
2014-Dec-12 01:33N 40°29' W 074°05'12 7.8
2014-Dec-12 00:04N 40°24' W 073°51'1 2.4
2014-Dec-11 23:33N 40°23' W 073°51'9 6.5
2014-Dec-11 22:13N 40°29' W 073°59'5 6.9
2014-Dec-11 21:32N 40°29' W 074°06'7 6.0
2014-Dec-11 20:27N 40°29' W 074°14'1 1.1
2014-Dec-11 19:19N 40°30' W 074°16'0 0.0
2014-Dec-11 16:14N 40°30' W 074°16'6 3.5
2014-Dec-11 14:29N 40°30' W 074°08'6 6.0
2014-Dec-11 13:33N 40°29' W 074°00'8 6.3
2014-Dec-11 12:18N 40°25' W 073°52'2 2.0
2014-Dec-11 11:31N 40°23' W 073°52'4 3.3
2014-Dec-11 10:25N 40°25' W 073°56'3 1.0
2014-Dec-11 07:22N 40°23' W 073°53'7 6.0
2014-Dec-11 06:10N 40°29' W 073°59'4 5.8
2014-Dec-11 05:34N 40°29' W 074°04'  

Dump ship's entire track history